Terminal Aerodrome Forecast
Issued by NWS Pittsburgh, PA

Current Version | Previous Version | Graphics & Text | Print | Product List | Glossary On
Versions: 1 2 3 4 5 6 7 8 9 10 11 12 13 14 15 16 17 18 19 20 21 22 23 24 25 26 27 28 29 30
790
FTUS41 KPBZ 230218 AAA
TAFPIT
TAF AMD
KPIT 230218Z 2302/2406 24007KT P6SM BKN050
      TEMPO 2303/2304 -SHRA
     FM230400 28008KT P6SM BKN050
     FM230900 VRB03KT 4SM BR FEW150
     FM231300 31006KT P6SM BKN050=

USA.gov is the U.S. government's official web portal to all federal, state and local government web resources and services.